This is the latest recevied weather packets stored in our database for station/object IU2PLZ-10. If no packets are shown the sender has not sent any weather packets the latest 10 day(s).
| Time | Temp. | Humidity | Pressure | Rain* | Wind** | Luminosity | Snow |
|---|---|---|---|---|---|---|---|
| 1777663903 | 15° C | 55% | 969 hPa | - | - | - | - |
| 1777663002 | 15.56° C | 55% | 968.9 hPa | - | - | - | - |
| 1777662102 | 15° C | 55% | 967.9 hPa | - | - | - | - |
| 1777661202 | 15° C | 55% | 967.6 hPa | - | - | - | - |
| 1777660301 | 16.11° C | 54% | 968.1 hPa | - | - | - | - |
| 1777659401 | 16.11° C | 53% | 967.9 hPa | - | - | - | - |
| 1777658502 | 16.67° C | 52% | 968 hPa | - | - | - | - |
| 1777657601 | 16.11° C | 50% | 967.1 hPa | - | - | - | - |
| 1777655801 | 17.22° C | 47% | 966.6 hPa | - | - | - | - |
| 1777655058 | 17.22° C | 48% | 966.6 hPa | - | - | - | - |
| 1777654901 | 17.22° C | 48% | 966.6 hPa | - | - | - | - |
| 1777654000 | 17.78° C | 49% | 966.5 hPa | - | - | - | - |
| 1777653100 | 17.78° C | 50% | 966.7 hPa | - | - | - | - |
| 1777652326 | 18.89° C | 49% | 967.3 hPa | - | - | - | - |
| 1777652200 | 18.89° C | 49% | 967.3 hPa | - | - | - | - |
| 1777651300 | 18.89° C | 48% | 967.1 hPa | - | - | - | - |
| 1777650400 | 19.44° C | 47% | 967.2 hPa | - | - | - | - |
| 1777649500 | 20° C | 46% | 967.2 hPa | - | - | - | - |
| 1777648599 | 19.44° C | 45% | 965.7 hPa | - | - | - | - |
| 1777647699 | 20.56° C | 44% | 966.9 hPa | - | - | - | - |
| 1777646799 | 21.11° C | 44% | 967 hPa | - | - | - | - |
| 1777645899 | 21.11° C | 44% | 967 hPa | - | - | - | - |
| 1777644999 | 21.67° C | 43% | 967 hPa | - | - | - | - |
| 1777644099 | 21.67° C | 41% | 966.4 hPa | - | - | - | - |
| 1777643198 | 22.22° C | 41% | 966.4 hPa | - | - | - | - |
* Rain since midnight (hover to see other rain measurements)
** Current wind speed in m/s (hover to see current wind gust speed)